createdAt,value
2018-09-27T00:00:53.095Z,9.18
2018-09-27T00:03:22.348Z,9.13
2018-09-27T00:05:51.576Z,9.09
2018-09-27T00:08:21.033Z,9.12
2018-09-27T00:10:50.059Z,9.11
2018-09-27T00:13:19.134Z,9.07
2018-09-27T00:15:48.446Z,9.02
2018-09-27T00:18:17.816Z,8.87
2018-09-27T00:20:47.117Z,8.78
2018-09-27T00:23:16.529Z,9.05
2018-09-27T00:25:45.844Z,9.14
2018-09-27T00:28:15.100Z,8.88
2018-09-27T00:30:44.466Z,8.84
2018-09-27T00:33:13.752Z,8.77
2018-09-27T00:35:42.908Z,8.89
2018-09-27T00:38:12.244Z,8.88
2018-09-27T00:40:41.568Z,8.84
2018-09-27T00:43:10.842Z,8.85
2018-09-27T00:45:42.712Z,8.73
2018-09-27T00:48:13.167Z,8.56
2018-09-27T00:50:42.669Z,8.45
2018-09-27T00:53:11.976Z,8.27
2018-09-27T00:55:41.713Z,8.32
2018-09-27T00:58:11.223Z,8.37
2018-09-27T01:00:40.600Z,8.19
2018-09-27T01:03:09.738Z,8.23
2018-09-27T01:05:39.163Z,8.44
2018-09-27T01:08:08.569Z,8.50
2018-09-27T01:10:37.836Z,8.41
2018-09-27T01:13:07.281Z,8.44
2018-09-27T01:15:36.486Z,8.38
2018-09-27T01:18:05.749Z,8.18
2018-09-27T01:20:35.220Z,8.20
2018-09-27T01:23:04.637Z,8.12
2018-09-27T01:25:33.681Z,8.03
2018-09-27T01:28:02.855Z,8.11
2018-09-27T01:30:32.147Z,8.08
2018-09-27T01:33:01.233Z,7.97
2018-09-27T01:35:30.604Z,7.83
2018-09-27T01:38:00.021Z,7.75
2018-09-27T01:40:29.525Z,7.56
2018-09-27T01:42:58.651Z,7.53
2018-09-27T01:45:27.873Z,7.62
2018-09-27T01:47:57.165Z,7.68
2018-09-27T01:50:26.396Z,7.66
2018-09-27T01:52:55.604Z,7.67
2018-09-27T01:55:24.777Z,7.66
2018-09-27T01:57:54.000Z,7.66
2018-09-27T02:00:23.348Z,7.58
2018-09-27T02:02:52.669Z,7.59
2018-09-27T02:05:21.880Z,7.60
2018-09-27T02:07:51.137Z,7.52
2018-09-27T02:10:20.358Z,7.52
2018-09-27T02:12:49.891Z,7.45
2018-09-27T02:15:19.343Z,7.35
2018-09-27T02:17:48.575Z,7.30
2018-09-27T02:20:17.615Z,7.21
2018-09-27T02:22:46.699Z,7.18
2018-09-27T02:25:15.963Z,7.23
2018-09-27T02:27:45.431Z,7.25
2018-09-27T02:30:14.508Z,7.31
2018-09-27T02:32:43.728Z,7.25
2018-09-27T02:35:13.124Z,7.21
2018-09-27T02:37:42.463Z,7.04
2018-09-27T02:40:12.199Z,7.00
2018-09-27T02:42:41.351Z,7.03
2018-09-27T02:45:10.763Z,7.06
2018-09-27T02:47:40.245Z,6.96
2018-09-27T02:50:09.679Z,6.93
2018-09-27T02:52:39.131Z,6.94
2018-09-27T02:55:08.585Z,6.95
2018-09-27T02:57:37.864Z,6.85
2018-09-27T03:00:07.004Z,6.75
2018-09-27T03:02:36.118Z,6.69
2018-09-27T03:05:05.851Z,6.67
2018-09-27T03:07:35.351Z,6.79
2018-09-27T03:10:04.867Z,6.79
2018-09-27T03:12:34.242Z,6.72
2018-09-27T03:15:03.549Z,6.76
2018-09-27T03:17:32.615Z,6.72
2018-09-27T03:20:01.920Z,6.69
2018-09-27T03:22:31.343Z,6.74
2018-09-27T03:25:00.752Z,6.78
2018-09-27T03:27:30.105Z,6.71
2018-09-27T03:29:59.497Z,6.64
2018-09-27T03:32:28.841Z,6.59
2018-09-27T03:34:58.368Z,6.47
2018-09-27T03:37:27.912Z,6.50
2018-09-27T03:39:57.331Z,6.57
2018-09-27T03:42:26.761Z,6.51
2018-09-27T03:44:55.872Z,6.54
2018-09-27T03:47:24.931Z,6.52
2018-09-27T03:49:54.367Z,6.50
2018-09-27T03:52:23.774Z,6.43
2018-09-27T03:54:53.147Z,6.36
2018-09-27T03:57:22.404Z,6.36
2018-09-27T03:59:51.847Z,6.46
2018-09-27T04:02:21.244Z,6.39
2018-09-27T04:04:50.275Z,6.36
2018-09-27T04:07:19.815Z,6.28
2018-09-27T04:09:49.258Z,6.21
2018-09-27T04:12:18.608Z,6.24
2018-09-27T04:14:47.891Z,6.29
2018-09-27T04:17:17.060Z,6.33
2018-09-27T04:19:46.319Z,6.35
2018-09-27T04:22:15.679Z,6.39
2018-09-27T04:24:44.800Z,6.45
2018-09-27T04:27:14.246Z,6.38
2018-09-27T04:29:43.480Z,6.58
2018-09-27T04:32:12.999Z,6.44
2018-09-27T04:34:42.346Z,6.54
2018-09-27T04:37:11.647Z,6.76
2018-09-27T04:39:41.003Z,6.82
2018-09-27T04:42:10.299Z,6.73
2018-09-27T04:44:39.373Z,6.73
2018-09-27T04:47:08.860Z,6.75
2018-09-27T04:49:38.055Z,6.73
2018-09-27T04:52:07.179Z,6.80
2018-09-27T04:54:36.650Z,6.80
2018-09-27T04:57:05.949Z,6.82
2018-09-27T04:59:35.295Z,6.94
2018-09-27T05:02:04.698Z,6.94
2018-09-27T05:04:34.019Z,7.04
2018-09-27T05:07:03.114Z,7.08
2018-09-27T05:09:32.549Z,7.31
2018-09-27T05:12:02.008Z,7.41
2018-09-27T05:14:31.479Z,7.51
2018-09-27T05:17:00.919Z,7.54
2018-09-27T05:19:30.363Z,7.45
2018-09-27T05:21:59.729Z,7.57
2018-09-27T05:24:28.811Z,7.76
2018-09-27T05:26:58.316Z,7.82
2018-09-27T05:29:27.579Z,7.94
2018-09-27T05:31:56.883Z,8.08
2018-09-27T05:34:26.260Z,8.07
2018-09-27T05:36:55.601Z,8.15
2018-09-27T05:39:24.978Z,8.25
2018-09-27T05:41:54.351Z,8.30
2018-09-27T05:44:23.689Z,8.32
2018-09-27T05:46:52.954Z,8.32
2018-09-27T05:49:22.043Z,8.40
2018-09-27T05:51:51.268Z,8.48
2018-09-27T05:54:20.797Z,8.55
2018-09-27T05:56:50.119Z,8.66
2018-09-27T05:59:19.136Z,8.65
2018-09-27T06:01:48.639Z,8.61
2018-09-27T06:04:17.987Z,8.74
2018-09-27T06:06:47.317Z,8.87
2018-09-27T06:09:16.372Z,8.98
2018-09-27T06:11:45.597Z,9.12
2018-09-27T06:14:14.978Z,9.31
2018-09-27T06:16:43.942Z,9.43
2018-09-27T06:19:12.966Z,9.63
2018-09-27T06:21:42.341Z,9.73
2018-09-27T06:24:11.278Z,9.84
2018-09-27T06:26:40.593Z,9.77
2018-09-27T06:29:10.044Z,9.81
2018-09-27T06:31:39.475Z,9.99
2018-09-27T06:34:08.707Z,10.03
2018-09-27T06:36:38.244Z,10.12
2018-09-27T06:39:09.580Z,10.18
2018-09-27T06:41:38.756Z,10.26
2018-09-27T06:44:08.213Z,10.41
2018-09-27T06:46:37.426Z,10.53
2018-09-27T06:49:06.724Z,10.55
2018-09-27T06:51:36.229Z,10.64
2018-09-27T06:54:05.421Z,10.76
2018-09-27T06:56:34.714Z,10.88
2018-09-27T06:59:03.979Z,11.07
2018-09-27T07:01:33.299Z,11.28
2018-09-27T07:04:02.299Z,11.73
2018-09-27T07:06:31.688Z,11.96
2018-09-27T07:09:00.647Z,12.16
2018-09-27T07:11:29.888Z,12.24
2018-09-27T07:13:58.789Z,12.38
2018-09-27T07:16:28.165Z,12.55
2018-09-27T07:18:57.504Z,12.67
2018-09-27T07:21:26.674Z,12.70
2018-09-27T07:23:55.926Z,12.80
2018-09-27T07:26:24.923Z,12.88
2018-09-27T07:28:54.016Z,13.00
2018-09-27T07:31:23.307Z,13.09
2018-09-27T07:33:52.655Z,13.17
2018-09-27T07:36:21.915Z,13.03
2018-09-27T07:38:51.060Z,13.20
2018-09-27T07:41:20.262Z,13.52
2018-09-27T07:43:49.408Z,13.98
2018-09-27T07:46:18.568Z,14.47
2018-09-27T07:48:47.850Z,14.87
2018-09-27T07:51:17.279Z,15.42
2018-09-27T07:53:46.725Z,15.74
2018-09-27T07:56:15.570Z,15.92
2018-09-27T07:58:44.641Z,15.99
2018-09-27T08:01:13.962Z,16.03
2018-09-27T08:03:43.004Z,16.12
2018-09-27T08:06:12.064Z,16.20
2018-09-27T08:08:41.293Z,16.17
2018-09-27T08:11:10.281Z,16.01
2018-09-27T08:13:39.596Z,15.96
2018-09-27T08:16:08.941Z,15.95
2018-09-27T08:18:38.380Z,15.91
2018-09-27T08:21:07.621Z,15.89
2018-09-27T08:23:36.589Z,15.81
2018-09-27T08:26:05.593Z,15.75
2018-09-27T08:28:34.895Z,15.75
2018-09-27T08:31:04.213Z,15.69
2018-09-27T08:33:33.102Z,15.67
2018-09-27T08:36:02.444Z,15.74
2018-09-27T08:38:31.882Z,15.66
2018-09-27T08:41:00.969Z,15.75
2018-09-27T08:43:30.208Z,15.80
2018-09-27T08:45:59.524Z,15.86
2018-09-27T08:48:28.919Z,15.86
2018-09-27T08:50:58.095Z,15.85
2018-09-27T08:53:27.443Z,15.74
2018-09-27T08:55:56.628Z,15.73
2018-09-27T08:58:25.978Z,15.74
2018-09-27T09:00:55.007Z,15.65
2018-09-27T09:03:24.315Z,15.73
2018-09-27T09:05:53.467Z,15.78
2018-09-27T09:08:22.756Z,15.79
2018-09-27T09:10:51.901Z,15.84
2018-09-27T09:13:20.906Z,15.97
2018-09-27T09:15:50.232Z,16.03
2018-09-27T09:18:19.312Z,15.73
2018-09-27T09:20:48.583Z,15.87
2018-09-27T09:23:17.795Z,15.74
2018-09-27T09:25:47.168Z,15.79
2018-09-27T09:28:16.531Z,15.88
2018-09-27T09:30:46.031Z,16.03
2018-09-27T09:33:15.286Z,16.02
2018-09-27T09:35:44.564Z,16.09
2018-09-27T09:38:13.791Z,16.22
2018-09-27T09:40:43.094Z,16.50
2018-09-27T09:43:12.446Z,16.58
2018-09-27T09:45:41.598Z,16.73
2018-09-27T09:48:10.545Z,16.89
2018-09-27T09:50:39.863Z,17.05
2018-09-27T09:53:09.031Z,17.21
2018-09-27T09:55:38.264Z,17.30
2018-09-27T09:58:07.580Z,17.17
2018-09-27T10:00:38.211Z,17.74
2018-09-27T10:03:08.279Z,18.30
2018-09-27T10:05:37.361Z,19.01
2018-09-27T10:08:06.772Z,19.77
2018-09-27T10:10:36.037Z,20.73
2018-09-27T10:13:05.251Z,22.02
2018-09-27T10:15:34.560Z,23.42
2018-09-27T10:18:03.837Z,24.89
2018-09-27T10:20:32.748Z,26.64
2018-09-27T10:23:01.923Z,28.04
2018-09-27T10:25:31.145Z,28.77
2018-09-27T10:28:00.133Z,29.36
2018-09-27T10:30:29.367Z,30.88
2018-09-27T10:32:58.540Z,30.88
2018-09-27T10:35:27.605Z,32.75
2018-09-27T10:37:56.700Z,33.99
2018-09-27T10:40:26.041Z,34.86
2018-09-27T10:42:55.266Z,34.98
2018-09-27T10:45:24.595Z,35.52
2018-09-27T10:47:53.810Z,36.61
2018-09-27T10:50:22.752Z,37.57
2018-09-27T10:52:52.091Z,38.47
2018-09-27T10:55:21.199Z,39.44
2018-09-27T10:57:50.604Z,40.19
2018-09-27T11:00:22.815Z,40.61
2018-09-27T11:02:52.835Z,40.72
2018-09-27T11:05:22.115Z,40.24
2018-09-27T11:07:51.680Z,39.12
2018-09-27T11:10:20.827Z,38.28
2018-09-27T11:12:49.934Z,37.63
2018-09-27T11:15:18.927Z,37.28
2018-09-27T11:17:48.104Z,37.15
2018-09-27T11:20:17.450Z,36.40
2018-09-27T11:22:46.776Z,36.58
2018-09-27T11:25:15.773Z,37.43
2018-09-27T11:27:44.788Z,38.21
2018-09-27T11:30:19.195Z,38.96
2018-09-27T11:32:48.152Z,39.71
2018-09-27T11:35:17.127Z,40.35
2018-09-27T11:37:46.339Z,40.32
2018-09-27T11:40:15.595Z,40.86
2018-09-27T11:42:44.756Z,40.91
2018-09-27T11:45:13.987Z,40.63
2018-09-27T11:47:43.018Z,39.36
2018-09-27T11:50:12.317Z,38.68
2018-09-27T11:52:41.987Z,39.32
2018-09-27T11:55:11.586Z,37.97
2018-09-27T11:57:40.907Z,37.89
2018-09-27T12:00:10.558Z,38.79
2018-09-27T12:02:39.903Z,38.74
2018-09-27T12:05:09.258Z,37.80
2018-09-27T12:07:38.797Z,35.82
2018-09-27T12:10:08.138Z,34.16
2018-09-27T12:12:37.391Z,36.61
2018-09-27T12:15:06.844Z,37.42
2018-09-27T12:17:35.911Z,37.58
2018-09-27T12:20:05.119Z,37.93
2018-09-27T12:22:34.250Z,37.55
2018-09-27T12:25:03.491Z,37.83
2018-09-27T12:27:32.731Z,38.15
2018-09-27T12:30:01.913Z,38.72
2018-09-27T12:32:31.349Z,39.17
2018-09-27T12:35:00.628Z,39.65
2018-09-27T12:37:29.630Z,40.05
2018-09-27T12:39:59.036Z,39.89
2018-09-27T12:42:28.394Z,39.75
2018-09-27T12:44:57.758Z,39.99
2018-09-27T12:47:26.971Z,39.89
2018-09-27T12:49:56.229Z,39.78
2018-09-27T12:52:25.730Z,39.86
2018-09-27T12:54:54.967Z,39.83
2018-09-27T12:57:23.986Z,39.81
2018-09-27T12:59:53.283Z,39.14
2018-09-27T13:02:22.295Z,39.10
2018-09-27T13:04:52.416Z,39.25
2018-09-27T13:07:21.728Z,39.12
2018-09-27T13:09:51.289Z,38.97
2018-09-27T13:12:20.194Z,38.75
2018-09-27T13:14:49.370Z,37.85
2018-09-27T13:17:18.780Z,34.96
2018-09-27T13:19:48.237Z,33.37
2018-09-27T13:22:17.727Z,32.03
2018-09-27T13:24:47.158Z,31.19
2018-09-27T13:27:16.281Z,29.96
2018-09-27T13:29:45.612Z,28.77
2018-09-27T13:32:14.991Z,27.59
2018-09-27T13:34:44.288Z,27.11
2018-09-27T13:37:13.619Z,26.35
2018-09-27T13:39:42.928Z,24.80
2018-09-27T13:42:11.970Z,24.34
2018-09-27T13:44:41.135Z,23.74
2018-09-27T13:47:10.244Z,23.42
2018-09-27T13:49:39.459Z,23.22
2018-09-27T13:52:08.491Z,22.97
2018-09-27T13:54:37.518Z,22.80
2018-09-27T13:57:06.743Z,22.52
2018-09-27T13:59:36.004Z,22.18
2018-09-27T14:02:05.289Z,22.01
2018-09-27T14:04:34.749Z,21.31
2018-09-27T14:07:04.301Z,21.34
2018-09-27T14:09:34.154Z,21.32
2018-09-27T14:12:03.209Z,20.68
2018-09-27T14:14:32.545Z,20.45
2018-09-27T14:17:01.618Z,20.69
2018-09-27T14:19:30.847Z,20.54
2018-09-27T14:21:59.999Z,20.38
2018-09-27T14:24:29.243Z,20.33
2018-09-27T14:26:58.157Z,20.10
2018-09-27T14:29:27.439Z,19.73
2018-09-27T14:31:56.720Z,19.78
2018-09-27T14:34:25.815Z,19.80
2018-09-27T14:36:55.124Z,19.93
2018-09-27T14:39:24.680Z,19.82
2018-09-27T14:41:53.920Z,19.83
2018-09-27T14:44:23.158Z,19.72
2018-09-27T14:46:52.316Z,19.69
2018-09-27T14:49:21.515Z,19.13
2018-09-27T14:51:50.567Z,19.13
2018-09-27T14:54:19.904Z,18.94
2018-09-27T14:56:49.381Z,19.01
2018-09-27T14:59:18.742Z,19.00
2018-09-27T15:01:48.051Z,18.91
2018-09-27T15:04:17.518Z,18.74
2018-09-27T15:06:46.900Z,18.40
2018-09-27T15:09:15.975Z,18.42
2018-09-27T15:11:45.361Z,18.40
2018-09-27T15:14:14.871Z,18.32
2018-09-27T15:16:44.099Z,18.24
2018-09-27T15:19:13.281Z,18.11
2018-09-27T15:21:42.556Z,18.03
2018-09-27T15:24:11.851Z,17.93
2018-09-27T15:26:41.364Z,17.67
2018-09-27T15:29:10.701Z,17.66
2018-09-27T15:31:39.804Z,17.50
2018-09-27T15:34:09.237Z,17.21
2018-09-27T15:36:38.821Z,17.29
2018-09-27T15:39:08.103Z,17.20
2018-09-27T15:41:37.071Z,17.05
2018-09-27T15:44:06.003Z,16.97
2018-09-27T15:46:35.423Z,16.86
2018-09-27T15:49:04.475Z,16.75
2018-09-27T15:51:34.683Z,16.72
2018-09-27T15:54:03.576Z,16.61
2018-09-27T15:56:32.579Z,16.45
2018-09-27T15:59:01.927Z,16.35
2018-09-27T16:01:31.021Z,16.21
2018-09-27T16:04:00.450Z,16.13
2018-09-27T16:06:29.574Z,16.01
2018-09-27T16:08:58.639Z,16.00
2018-09-27T16:11:28.248Z,15.97
2018-09-27T16:13:57.647Z,15.85
2018-09-27T16:16:27.007Z,15.65
2018-09-27T16:18:56.659Z,15.53
2018-09-27T16:21:26.054Z,15.42
2018-09-27T16:23:55.502Z,15.40
2018-09-27T16:26:24.927Z,15.27
2018-09-27T16:28:53.908Z,15.33
2018-09-27T16:31:23.130Z,15.38
2018-09-27T16:33:52.548Z,15.45
2018-09-27T16:36:21.939Z,15.26
2018-09-27T16:38:51.395Z,15.19
2018-09-27T16:41:20.401Z,15.11
2018-09-27T16:43:50.506Z,15.03
2018-09-27T16:46:19.923Z,14.98
2018-09-27T16:48:51.442Z,14.95
2018-09-27T16:51:21.682Z,14.87
2018-09-27T16:53:51.047Z,14.89
2018-09-27T16:56:20.475Z,14.78
2018-09-27T16:58:49.445Z,14.76
2018-09-27T17:01:18.933Z,14.72
2018-09-27T17:03:48.438Z,14.65
2018-09-27T17:06:17.632Z,14.68
2018-09-27T17:08:46.955Z,14.62
2018-09-27T17:11:16.388Z,14.51
2018-09-27T17:13:45.585Z,14.51
2018-09-27T17:16:15.750Z,14.35
2018-09-27T17:18:47.322Z,14.58
2018-09-27T17:21:17.208Z,14.54
2018-09-27T17:23:47.660Z,14.55
2018-09-27T17:26:17.949Z,14.16
2018-09-27T17:28:48.836Z,14.00
2018-09-27T17:31:18.867Z,14.11
2018-09-27T17:33:48.341Z,14.17
2018-09-27T17:36:18.189Z,14.20
2018-09-27T17:38:47.485Z,14.05
2018-09-27T17:41:16.665Z,14.21
2018-09-27T17:43:47.471Z,14.23
2018-09-27T17:46:16.791Z,14.38
2018-09-27T17:48:47.188Z,14.25
2018-09-27T17:51:16.295Z,13.92
2018-09-27T17:53:50.300Z,14.03
2018-09-27T17:56:19.968Z,14.17
2018-09-27T17:58:54.496Z,13.98
2018-09-27T18:01:24.177Z,14.07
2018-09-27T18:06:27.745Z,14.17
2018-09-27T18:08:58.085Z,14.17
2018-09-27T18:11:28.191Z,14.12
2018-09-27T18:13:57.307Z,14.05
2018-09-27T18:16:26.406Z,14.03
2018-09-27T18:18:55.749Z,13.98
2018-09-27T18:21:25.024Z,13.91
2018-09-27T18:23:54.314Z,13.91
2018-09-27T18:26:23.572Z,13.99
2018-09-27T18:28:52.756Z,14.03
2018-09-27T18:31:22.084Z,14.02
2018-09-27T18:33:51.195Z,13.98
2018-09-27T18:36:20.478Z,13.92
2018-09-27T18:38:49.855Z,13.91
2018-09-27T18:41:19.066Z,13.92
2018-09-27T18:43:48.714Z,13.93
2018-09-27T18:46:18.433Z,13.88
2018-09-27T18:48:48.873Z,13.80
2018-09-27T18:51:18.440Z,13.81
2018-09-27T18:53:47.955Z,13.66
2018-09-27T18:56:16.883Z,13.57
2018-09-27T18:58:46.151Z,13.68
2018-09-27T19:01:15.253Z,13.58
2018-09-27T19:03:44.412Z,13.51
2018-09-27T19:06:17.551Z,13.39
2018-09-27T19:08:48.732Z,13.22
2018-09-27T19:11:20.024Z,13.14
2018-09-27T19:13:49.494Z,13.11
2018-09-27T19:16:18.719Z,13.00
2018-09-27T19:18:48.183Z,12.82
2018-09-27T19:21:17.549Z,12.61
2018-09-27T19:23:47.184Z,12.64
2018-09-27T19:26:16.669Z,12.49
2018-09-27T19:28:45.704Z,12.33
2018-09-27T19:31:15.221Z,12.32
2018-09-27T19:33:44.774Z,12.27
2018-09-27T19:36:14.082Z,12.25
2018-09-27T19:38:43.180Z,12.31
2018-09-27T19:41:12.449Z,12.29
2018-09-27T19:43:41.854Z,12.18
2018-09-27T19:46:11.093Z,12.02
2018-09-27T19:48:40.421Z,11.87
2018-09-27T19:51:09.722Z,11.75
2018-09-27T19:53:39.123Z,11.65
2018-09-27T19:56:09.699Z,11.57
2018-09-27T19:58:38.880Z,11.57
2018-09-27T20:01:08.268Z,11.56
2018-09-27T20:03:37.533Z,11.42
2018-09-27T20:06:06.579Z,11.34
2018-09-27T20:08:35.862Z,11.36
2018-09-27T20:11:04.808Z,11.51
2018-09-27T20:13:34.286Z,11.56
2018-09-27T20:16:03.476Z,11.54
2018-09-27T20:18:32.684Z,11.41
2018-09-27T20:21:01.989Z,11.61
2018-09-27T20:23:31.221Z,11.59
2018-09-27T20:26:00.308Z,11.38
2018-09-27T20:28:29.710Z,11.21
2018-09-27T20:30:59.032Z,11.02
2018-09-27T20:33:28.335Z,11.15
2018-09-27T20:35:57.383Z,11.27
2018-09-27T20:38:26.785Z,11.11
2018-09-27T20:40:55.876Z,11.07
2018-09-27T20:43:25.542Z,11.14
2018-09-27T20:45:54.827Z,11.16
2018-09-27T20:48:24.231Z,11.19
2018-09-27T20:50:53.256Z,11.08
2018-09-27T20:53:22.279Z,11.01
2018-09-27T20:55:51.402Z,10.94
2018-09-27T20:58:20.647Z,10.96
2018-09-27T21:00:49.642Z,10.88
2018-09-27T21:03:19.004Z,10.85
2018-09-27T21:05:48.244Z,10.95
2018-09-27T21:08:17.434Z,10.73
2018-09-27T21:10:46.776Z,10.77
2018-09-27T21:13:15.955Z,10.67
2018-09-27T21:15:45.179Z,10.55
2018-09-27T21:18:14.593Z,10.47
2018-09-27T21:20:43.927Z,10.49
2018-09-27T21:23:13.331Z,10.43
2018-09-27T21:25:42.582Z,10.37
2018-09-27T21:28:11.665Z,10.36
2018-09-27T21:30:40.898Z,10.19
2018-09-27T21:33:10.014Z,10.12
2018-09-27T21:35:39.401Z,10.07
2018-09-27T21:38:08.688Z,10.05
2018-09-27T21:40:38.019Z,9.93
2018-09-27T21:43:07.100Z,9.85
2018-09-27T21:45:36.424Z,9.84
2018-09-27T21:48:05.528Z,9.92
2018-09-27T21:50:34.456Z,9.85
2018-09-27T21:53:03.654Z,9.81
2018-09-27T21:55:32.704Z,9.80
2018-09-27T21:58:01.915Z,9.80
2018-09-27T22:00:31.110Z,9.79
2018-09-27T22:03:00.135Z,9.82
2018-09-27T22:05:29.344Z,9.76
2018-09-27T22:07:58.388Z,9.67
2018-09-27T22:10:27.586Z,9.62
2018-09-27T22:12:56.824Z,9.60
2018-09-27T22:15:26.001Z,9.51
2018-09-27T22:17:55.014Z,9.58
2018-09-27T22:20:24.265Z,9.64
2018-09-27T22:22:53.462Z,9.63
2018-09-27T22:25:22.680Z,9.59
2018-09-27T22:27:51.676Z,9.63
2018-09-27T22:30:20.686Z,9.57
2018-09-27T22:32:49.820Z,9.55
2018-09-27T22:35:18.987Z,9.56
2018-09-27T22:37:48.136Z,9.60
2018-09-27T22:40:17.285Z,9.62
2018-09-27T22:42:46.189Z,9.58
2018-09-27T22:45:15.361Z,9.42
2018-09-27T22:47:44.547Z,9.28
2018-09-27T22:50:13.543Z,9.32
2018-09-27T22:52:42.743Z,9.32
2018-09-27T22:55:11.908Z,9.30
2018-09-27T22:57:40.780Z,9.14
2018-09-27T23:00:09.961Z,9.29
2018-09-27T23:02:38.912Z,9.36
2018-09-27T23:05:08.027Z,9.43
2018-09-27T23:07:37.099Z,9.46
2018-09-27T23:10:06.507Z,9.44
2018-09-27T23:12:35.673Z,9.48
2018-09-27T23:15:04.611Z,9.41
2018-09-27T23:17:34.039Z,9.30
2018-09-27T23:20:03.133Z,9.39
2018-09-27T23:22:32.278Z,9.44
2018-09-27T23:25:01.491Z,9.40
2018-09-27T23:27:30.482Z,9.35
2018-09-27T23:29:59.862Z,9.32
2018-09-27T23:32:29.211Z,9.27
2018-09-27T23:34:58.463Z,9.23
2018-09-27T23:37:27.531Z,9.12
2018-09-27T23:39:56.885Z,9.14
2018-09-27T23:42:26.017Z,9.07
2018-09-27T23:44:55.318Z,9.01
2018-09-27T23:47:24.512Z,8.94
2018-09-27T23:49:53.595Z,9.02
2018-09-27T23:52:22.834Z,9.17
2018-09-27T23:54:51.902Z,9.19
2018-09-27T23:57:20.923Z,9.24
2018-09-27T23:59:49.989Z,9.25
